Terminal Aerodrome Forecast
Issued by NWS

Home | Current Version | Previous Version | Text Only | Print | Product List | Glossary On
Versions: 1 2 3 4 5 6 7 8 9 10 11 12 13 14 15
000
FTUS42 KMLB 211721
TAFSUA
TAF
KSUA 211721Z 2118/2218 11014G20KT P6SM SCT025
     FM220300 10007KT P6SM SKC
     FM221500 11012KT P6SM SCT030=

USA.gov is the U.S. government's official web portal to all federal, state and local government web resources and services.